Главная страница
METAR-TAF:

METAR-TAF

Аэропорты :

Каир, Египет

широта: 30-08N, долгота: 031-24E, высота над уровнем моря: 64 м

Текущие метеонаблюдения

Эта сводка был подготовлена 30 минут назад, в 11:30 UTC
Ветер 18 Узел от южный-юго-западный
Температура 20°C
Влажность 37%
Давление 1011 hPa
Видимость: 6000 м

METAR: HECA 221130Z 21018KT 6000 NSC 20/05 Q1011 NOSIG

Время: 14:00 (12:00 UTC)

Прогноз

Эта сводка был подготовлена 1 час и 0 минут назад, в 11:00 UTC
Прогноз действительный с 22-го 12 UTC до 23-го 18 UTC
Ветер 12 Узел от юго-западный с порывами до 22 Узел
Видимость: 6000 м
временами
С 22-го 12 UTC до 22-го 18 UTC
Видимость: 4000 м
песок

TAF: HECA 221100Z 2212/2318 22012G22KT 6000 NSC TEMPO 2212/2218 4000 SA

Метеонаблюдения и прогнозы для более 4000 аэропортов (сводки METAR и TAF).

Имеющиеся станции представлены на карте желтыми и красными точками.

Чтобы увидеть название станции, наведите на нее мышь.

Затем щелкните, чтобы увидеть метеонаблюдения и метеопрогнозы.

Управление картой: чтобы увеличить масштаб, щелкните зеленые кнопки с черным крестиком; чтобы уменьшить масштаб, щелкните зеленую кнопку с тире; для просмотра соседних карт щелкайте зеленые стрелки.


METAR-TAF: